createdAt,value
2023-01-13T00:00:50.196Z,49.65
2023-01-13T00:03:17.668Z,49.63
2023-01-13T00:05:44.904Z,48.93
2023-01-13T00:08:12.097Z,49.85
2023-01-13T00:10:39.637Z,49.18
2023-01-13T00:13:06.865Z,48.58
2023-01-13T00:15:34.112Z,48.93
2023-01-13T00:18:01.636Z,49.42
2023-01-13T00:20:28.825Z,48.17
2023-01-13T00:22:56.843Z,48.74
2023-01-13T00:25:24.345Z,48.24
2023-01-13T00:27:51.532Z,48.32
2023-01-13T00:30:18.688Z,47.84
2023-01-13T00:32:46.228Z,47.98
2023-01-13T00:35:13.448Z,48.03
2023-01-13T00:37:41.161Z,48.29
2023-01-13T00:40:09.005Z,48.25
2023-01-13T00:42:55.005Z,48.50
2023-01-13T00:45:22.489Z,48.56
2023-01-13T00:47:49.709Z,48.45
2023-01-13T00:50:16.907Z,48.61
2023-01-13T00:52:44.428Z,48.94
2023-01-13T00:55:11.640Z,48.50
2023-01-13T00:57:40.159Z,47.89
2023-01-13T01:00:08.061Z,47.53
2023-01-13T01:02:35.357Z,47.53
2023-01-13T01:05:02.655Z,47.37
2023-01-13T01:07:30.165Z,48.21
2023-01-13T01:09:57.377Z,50.88
2023-01-13T01:12:24.583Z,49.13
2023-01-13T01:14:52.024Z,48.29
2023-01-13T01:17:19.224Z,48.88
2023-01-13T01:19:46.412Z,48.92
2023-01-13T01:22:13.908Z,48.47
2023-01-13T01:24:41.271Z,48.01
2023-01-13T01:27:08.465Z,47.95
2023-01-13T01:29:35.921Z,48.66
2023-01-13T01:32:03.462Z,47.52
2023-01-13T01:34:30.677Z,46.96
2023-01-13T01:36:58.140Z,47.46
2023-01-13T01:39:25.336Z,47.51
2023-01-13T01:42:11.334Z,47.76
2023-01-13T01:44:41.764Z,48.01
2023-01-13T01:47:13.409Z,47.61
2023-01-13T01:49:40.850Z,47.47
2023-01-13T01:52:11.412Z,47.54
2023-01-13T01:54:52.004Z,47.29
2023-01-13T01:57:31.217Z,47.70
2023-01-13T01:59:58.686Z,47.96
2023-01-13T02:02:26.841Z,47.46
2023-01-13T02:04:54.351Z,47.62
2023-01-13T02:07:22.443Z,48.54
2023-01-13T02:09:49.662Z,48.93
2023-01-13T02:12:29.419Z,48.48
2023-01-13T02:14:57.561Z,48.54
2023-01-13T02:17:37.233Z,48.28
2023-01-13T02:20:04.400Z,49.19
2023-01-13T02:22:36.118Z,49.39
2023-01-13T02:25:03.273Z,48.44
2023-01-13T02:27:36.734Z,48.09
2023-01-13T02:30:29.413Z,48.45
2023-01-13T02:33:15.116Z,48.69
2023-01-13T02:35:45.378Z,49.68
2023-01-13T02:38:12.851Z,49.21
2023-01-13T02:40:55.761Z,48.66
2023-01-13T02:43:42.151Z,49.08
2023-01-13T02:46:16.727Z,48.58
2023-01-13T02:48:44.854Z,48.49
2023-01-13T02:51:13.453Z,48.59
2023-01-13T02:54:03.941Z,48.99
2023-01-13T02:56:31.424Z,48.66
2023-01-13T02:58:58.658Z,48.45
2023-01-13T03:01:25.935Z,48.60
2023-01-13T03:03:53.516Z,48.96
2023-01-13T03:06:20.785Z,48.97
2023-01-13T03:08:47.911Z,49.31
2023-01-13T03:11:16.581Z,49.11
2023-01-13T03:13:56.164Z,48.91
2023-01-13T03:16:31.276Z,49.37
2023-01-13T03:19:05.612Z,49.12
2023-01-13T03:21:40.991Z,48.07
2023-01-13T03:24:28.387Z,48.54
2023-01-13T03:27:01.008Z,48.75
2023-01-13T03:29:29.425Z,48.46
2023-01-13T03:31:58.797Z,48.35
2023-01-13T03:34:30.298Z,48.72
2023-01-13T03:36:58.598Z,48.70
2023-01-13T03:39:28.090Z,48.62
2023-01-13T03:41:57.424Z,48.41
2023-01-13T03:44:35.378Z,48.12
2023-01-13T03:47:08.424Z,50.93
2023-01-13T03:49:41.145Z,49.72
2023-01-13T03:52:10.225Z,49.38
2023-01-13T03:54:39.733Z,50.96
2023-01-13T03:57:07.755Z,50.08
2023-01-13T03:59:36.451Z,49.87
2023-01-13T04:02:06.989Z,49.40
2023-01-13T04:04:35.587Z,49.76
2023-01-13T04:07:32.050Z,49.11
2023-01-13T04:10:01.733Z,49.39
2023-01-13T04:12:49.017Z,49.61
2023-01-13T04:15:17.117Z,49.50
2023-01-13T04:17:44.517Z,48.53
2023-01-13T04:20:11.892Z,48.85
2023-01-13T04:22:39.477Z,48.61
2023-01-13T04:25:07.452Z,48.48
2023-01-13T04:27:34.637Z,48.34
2023-01-13T04:30:02.124Z,48.00
2023-01-13T04:32:29.302Z,48.61
2023-01-13T04:34:56.525Z,48.61
2023-01-13T04:37:24.006Z,48.72
2023-01-13T04:39:51.233Z,47.74
2023-01-13T04:42:18.419Z,47.69
2023-01-13T04:44:46.024Z,47.92
2023-01-13T04:47:13.161Z,48.61
2023-01-13T04:49:40.308Z,48.64
2023-01-13T04:52:07.786Z,48.72
2023-01-13T04:54:35.059Z,48.87
2023-01-13T04:57:02.231Z,47.84
2023-01-13T04:59:29.670Z,47.14
2023-01-13T05:01:56.888Z,47.58
2023-01-13T05:04:24.150Z,48.68
2023-01-13T05:06:51.976Z,48.30
2023-01-13T05:09:19.258Z,47.85
2023-01-13T05:12:04.973Z,47.49
2023-01-13T05:14:51.217Z,48.40
2023-01-13T05:17:22.932Z,48.54
2023-01-13T05:19:50.377Z,48.35
2023-01-13T05:22:36.027Z,48.24
2023-01-13T05:25:21.779Z,47.86
2023-01-13T05:27:49.389Z,48.64
2023-01-13T05:30:17.013Z,48.82
2023-01-13T05:32:44.232Z,49.21
2023-01-13T05:35:11.453Z,49.37
2023-01-13T05:37:39.489Z,49.89
2023-01-13T05:40:25.813Z,50.52
2023-01-13T05:43:20.923Z,50.13
2023-01-13T05:45:49.040Z,49.79
2023-01-13T05:48:16.913Z,49.90
2023-01-13T05:50:44.731Z,49.94
2023-01-13T05:53:11.926Z,49.30
2023-01-13T05:55:40.378Z,49.84
2023-01-13T05:58:11.194Z,50.16
2023-01-13T06:00:40.359Z,50.13
2023-01-13T06:03:09.592Z,50.11
2023-01-13T06:05:36.949Z,50.46
2023-01-13T06:08:04.712Z,50.80
2023-01-13T06:10:32.305Z,50.86
2023-01-13T06:12:59.547Z,49.76
2023-01-13T06:15:26.825Z,49.70
2023-01-13T06:17:54.672Z,50.54
2023-01-13T06:20:21.952Z,50.88
2023-01-13T06:22:50.400Z,50.14
2023-01-13T06:25:36.561Z,50.19
2023-01-13T06:28:03.932Z,49.70
2023-01-13T06:30:34.182Z,49.61
2023-01-13T06:33:01.746Z,49.99
2023-01-13T06:35:30.069Z,49.36
2023-01-13T06:37:58.287Z,49.00
2023-01-13T06:40:25.464Z,48.94
2023-01-13T06:43:13.269Z,49.04
2023-01-13T06:45:52.698Z,48.85
2023-01-13T06:48:20.335Z,49.55
2023-01-13T06:50:47.809Z,48.78
2023-01-13T06:53:14.996Z,49.21
2023-01-13T06:55:42.217Z,49.94
2023-01-13T06:58:09.718Z,49.94
2023-01-13T07:00:37.348Z,49.88
2023-01-13T07:03:07.129Z,49.10
2023-01-13T07:05:34.760Z,50.57
2023-01-13T07:08:02.050Z,50.93
2023-01-13T07:10:30.020Z,51.13
2023-01-13T07:13:18.360Z,51.24
2023-01-13T07:15:55.328Z,51.74
2023-01-13T07:18:22.837Z,51.11
2023-01-13T07:20:56.695Z,52.32
2023-01-13T07:23:24.751Z,51.94
2023-01-13T07:25:51.948Z,51.71
2023-01-13T07:28:19.150Z,53.24
2023-01-13T07:30:47.695Z,52.52
2023-01-13T07:33:14.961Z,51.95
2023-01-13T07:35:42.107Z,51.98
2023-01-13T07:38:09.580Z,50.78
2023-01-13T07:40:36.972Z,51.37
2023-01-13T07:43:22.872Z,51.77
2023-01-13T07:45:55.183Z,52.02
2023-01-13T07:48:22.374Z,52.06
2023-01-13T07:50:49.534Z,51.20
2023-01-13T07:53:16.956Z,51.57
2023-01-13T07:55:44.160Z,51.53
2023-01-13T07:58:11.554Z,52.44
2023-01-13T08:00:38.958Z,52.38
2023-01-13T08:03:06.487Z,52.29
2023-01-13T08:05:34.842Z,52.46
2023-01-13T08:08:02.201Z,51.81
2023-01-13T08:10:29.744Z,53.55
2023-01-13T08:13:15.485Z,51.71
2023-01-13T08:15:43.050Z,52.28
2023-01-13T08:18:10.421Z,54.98
2023-01-13T08:20:37.710Z,55.08
2023-01-13T08:23:07.202Z,54.97
2023-01-13T08:25:34.694Z,53.76
2023-01-13T08:28:01.926Z,53.70
2023-01-13T08:30:29.501Z,54.78
2023-01-13T08:32:56.792Z,52.84
2023-01-13T08:35:24.016Z,57.71
2023-01-13T08:37:51.686Z,55.06
2023-01-13T08:40:19.184Z,54.27
2023-01-13T08:42:48.519Z,55.52
2023-01-13T08:45:16.291Z,56.43
2023-01-13T08:47:43.486Z,54.22
2023-01-13T08:50:11.225Z,56.41
2023-01-13T08:52:38.722Z,54.77
2023-01-13T08:55:06.142Z,55.56
2023-01-13T08:57:33.380Z,53.80
2023-01-13T09:00:00.806Z,52.84
2023-01-13T09:02:28.134Z,54.33
2023-01-13T09:04:55.475Z,54.26
2023-01-13T09:07:23.009Z,56.67
2023-01-13T09:09:50.171Z,54.62
2023-01-13T09:12:36.237Z,52.35
2023-01-13T09:15:04.291Z,54.39
2023-01-13T09:17:31.522Z,54.56
2023-01-13T09:19:58.899Z,55.81
2023-01-13T09:22:29.276Z,55.50
2023-01-13T09:24:56.510Z,53.63
2023-01-13T09:27:23.690Z,57.56
2023-01-13T09:29:51.181Z,54.76
2023-01-13T09:32:18.434Z,53.98
2023-01-13T09:35:00.631Z,56.70
2023-01-13T09:37:29.004Z,54.14
2023-01-13T09:39:56.243Z,53.64
2023-01-13T09:42:42.282Z,57.34
2023-01-13T09:45:20.042Z,57.40
2023-01-13T09:47:51.879Z,56.86
2023-01-13T09:50:19.352Z,55.49
2023-01-13T09:52:46.521Z,58.25
2023-01-13T09:55:17.843Z,55.36
2023-01-13T09:57:45.301Z,55.32
2023-01-13T10:00:14.090Z,52.87
2023-01-13T10:02:41.537Z,55.35
2023-01-13T10:05:08.948Z,53.28
2023-01-13T10:07:36.465Z,52.25
2023-01-13T10:10:04.365Z,51.28
2023-01-13T10:12:50.459Z,51.97
2023-01-13T10:15:20.540Z,51.46
2023-01-13T10:17:50.813Z,53.51
2023-01-13T10:20:24.693Z,53.64
2023-01-13T10:23:17.937Z,53.17
2023-01-13T10:25:49.099Z,53.24
2023-01-13T10:28:19.423Z,53.00
2023-01-13T10:30:47.707Z,56.47
2023-01-13T10:33:27.674Z,54.97
2023-01-13T10:35:58.257Z,54.92
2023-01-13T10:38:27.076Z,55.74
2023-01-13T10:40:55.311Z,57.46
2023-01-13T10:43:23.037Z,58.66
2023-01-13T10:45:52.960Z,58.42
2023-01-13T10:48:20.230Z,58.49
2023-01-13T10:50:48.334Z,59.05
2023-01-13T10:53:18.588Z,56.39
2023-01-13T10:55:58.115Z,56.55
2023-01-13T10:58:25.724Z,59.61
2023-01-13T11:00:58.919Z,60.94
2023-01-13T11:03:28.026Z,59.22
2023-01-13T11:05:58.696Z,59.62
2023-01-13T11:08:26.922Z,57.46
2023-01-13T11:10:55.319Z,56.92
2023-01-13T11:13:26.218Z,59.07
2023-01-13T11:16:08.384Z,55.71
2023-01-13T11:19:02.387Z,55.29
2023-01-13T11:21:30.799Z,55.78
2023-01-13T11:24:03.789Z,54.63
2023-01-13T11:26:39.123Z,57.09
2023-01-13T11:29:27.427Z,58.15
2023-01-13T11:31:55.802Z,58.39
2023-01-13T11:34:26.279Z,58.41
2023-01-13T11:36:54.576Z,56.20
2023-01-13T11:39:25.858Z,55.11
2023-01-13T11:42:13.284Z,55.80
2023-01-13T11:44:41.763Z,55.52
2023-01-13T11:47:10.494Z,56.41
2023-01-13T11:49:38.653Z,59.94
2023-01-13T11:52:25.204Z,63.64
2023-01-13T11:55:11.671Z,62.98
2023-01-13T11:58:08.235Z,59.59
2023-01-13T12:00:36.949Z,57.76
2023-01-13T12:03:04.375Z,59.21
2023-01-13T12:05:36.687Z,58.43
2023-01-13T12:08:03.897Z,62.47
2023-01-13T12:10:37.392Z,59.39
2023-01-13T12:13:24.108Z,63.33
2023-01-13T12:15:51.718Z,62.46
2023-01-13T12:18:21.070Z,57.43
2023-01-13T12:20:54.347Z,58.69
2023-01-13T12:23:32.814Z,59.03
2023-01-13T12:26:01.673Z,59.64
2023-01-13T12:28:32.625Z,59.17
2023-01-13T12:31:00.539Z,59.04
2023-01-13T12:33:46.318Z,58.40
2023-01-13T12:36:22.618Z,57.77
2023-01-13T12:38:50.877Z,60.15
2023-01-13T12:41:22.120Z,60.51
2023-01-13T12:44:07.785Z,59.54
2023-01-13T12:46:58.335Z,59.72
2023-01-13T12:49:29.830Z,57.20
2023-01-13T12:51:57.306Z,57.64
2023-01-13T12:54:30.487Z,61.37
2023-01-13T12:56:58.493Z,62.77
2023-01-13T12:59:25.569Z,64.72
2023-01-13T13:02:13.114Z,65.69
2023-01-13T13:04:43.600Z,62.51
2023-01-13T13:07:13.267Z,59.34
2023-01-13T13:09:44.995Z,63.78
2023-01-13T13:12:49.167Z,62.45
2023-01-13T13:15:26.802Z,66.29
2023-01-13T13:18:03.606Z,64.50
2023-01-13T13:20:50.815Z,62.33
2023-01-13T13:23:35.651Z,65.81
2023-01-13T13:26:16.875Z,67.17
2023-01-13T13:29:04.330Z,66.91
2023-01-13T13:31:31.794Z,64.44
2023-01-13T13:34:14.167Z,65.18
2023-01-13T13:36:45.948Z,62.51
2023-01-13T13:39:46.013Z,62.95
2023-01-13T13:42:33.349Z,62.96
2023-01-13T13:45:19.273Z,61.94
2023-01-13T13:47:47.084Z,63.02
2023-01-13T13:50:15.892Z,61.67
2023-01-13T13:52:43.655Z,60.90
2023-01-13T13:55:18.648Z,60.57
2023-01-13T13:57:47.637Z,58.77
2023-01-13T14:00:15.177Z,58.97
2023-01-13T14:02:47.144Z,57.50
2023-01-13T14:05:19.052Z,60.89
2023-01-13T14:07:47.815Z,59.81
2023-01-13T14:10:17.170Z,58.29
2023-01-13T14:12:44.387Z,57.84
2023-01-13T14:15:23.860Z,57.88
2023-01-13T14:17:51.167Z,56.68
2023-01-13T14:20:18.969Z,56.56
2023-01-13T14:22:47.299Z,56.56
2023-01-13T14:25:29.731Z,56.29
2023-01-13T14:27:57.521Z,56.95
2023-01-13T14:30:24.770Z,55.75
2023-01-13T14:32:51.959Z,56.88
2023-01-13T14:35:19.558Z,56.59
2023-01-13T14:37:48.971Z,56.50
2023-01-13T14:40:49.497Z,55.70
2023-01-13T14:43:17.506Z,55.22
2023-01-13T14:45:55.146Z,55.71
2023-01-13T14:48:22.833Z,56.22
2023-01-13T14:50:50.062Z,56.36
2023-01-13T14:53:27.775Z,58.27
2023-01-13T14:55:55.209Z,56.53
2023-01-13T14:58:22.563Z,56.08
2023-01-13T15:00:50.514Z,56.26
2023-01-13T15:03:19.100Z,58.06
2023-01-13T15:05:50.302Z,58.07
2023-01-13T15:08:26.289Z,59.59
2023-01-13T15:10:54.889Z,56.92
2023-01-13T15:13:44.286Z,56.49
2023-01-13T15:16:20.236Z,56.89
2023-01-13T15:18:47.989Z,61.20
2023-01-13T15:21:15.841Z,64.24
2023-01-13T15:23:43.266Z,64.38
2023-01-13T15:26:21.585Z,64.21
2023-01-13T15:28:48.979Z,65.32
2023-01-13T15:31:16.657Z,64.77
2023-01-13T15:33:43.878Z,62.27
2023-01-13T15:36:25.148Z,66.15
2023-01-13T15:38:52.673Z,67.92
2023-01-13T15:41:39.954Z,70.36
2023-01-13T15:44:26.070Z,70.42
2023-01-13T15:46:53.413Z,68.63
2023-01-13T15:49:22.861Z,66.88
2023-01-13T15:51:50.130Z,67.44
2023-01-13T15:54:19.918Z,66.39
2023-01-13T15:56:47.408Z,65.62
2023-01-13T15:59:16.074Z,62.43
2023-01-13T16:01:43.498Z,60.91
2023-01-13T16:04:11.137Z,59.95
2023-01-13T16:06:38.414Z,63.21
2023-01-13T16:09:05.744Z,61.21
2023-01-13T16:11:33.394Z,60.53
2023-01-13T16:14:00.664Z,62.29
2023-01-13T16:16:28.353Z,60.47
2023-01-13T16:18:56.093Z,63.73
2023-01-13T16:21:23.804Z,64.85
2023-01-13T16:23:51.665Z,66.62
2023-01-13T16:26:20.579Z,64.42
2023-01-13T16:28:47.993Z,63.43
2023-01-13T16:31:24.561Z,62.12
2023-01-13T16:33:52.170Z,66.13
2023-01-13T16:36:20.344Z,62.77
2023-01-13T16:38:48.349Z,61.99
2023-01-13T16:41:15.837Z,62.65
2023-01-13T16:43:43.130Z,61.72
2023-01-13T16:46:24.005Z,61.14
2023-01-13T16:48:53.100Z,61.77
2023-01-13T16:51:20.806Z,63.91
2023-01-13T16:53:48.426Z,63.44
2023-01-13T16:56:17.564Z,61.26
2023-01-13T16:58:45.178Z,63.43
2023-01-13T17:01:17.217Z,61.23
2023-01-13T17:03:49.072Z,61.04
2023-01-13T17:06:17.256Z,62.69
2023-01-13T17:08:44.766Z,62.45
2023-01-13T17:11:12.442Z,60.52
2023-01-13T17:13:40.247Z,58.97
2023-01-13T17:16:13.037Z,58.65
2023-01-13T17:18:42.983Z,58.68
2023-01-13T17:21:10.470Z,58.47
2023-01-13T17:23:37.749Z,58.25
2023-01-13T17:26:05.432Z,59.00
2023-01-13T17:28:33.197Z,57.00
2023-01-13T17:31:00.577Z,57.38
2023-01-13T17:33:29.561Z,58.02
2023-01-13T17:35:57.185Z,57.75
2023-01-13T17:38:24.418Z,57.21
2023-01-13T17:40:51.739Z,57.29
2023-01-13T17:43:19.243Z,58.18
2023-01-13T17:45:46.757Z,58.67
2023-01-13T17:48:14.090Z,57.28
2023-01-13T17:50:46.764Z,58.17
2023-01-13T17:53:13.993Z,56.35
2023-01-13T17:55:41.589Z,55.80
2023-01-13T17:58:08.803Z,55.84
2023-01-13T18:00:36.041Z,55.40
2023-01-13T18:03:03.551Z,56.77
2023-01-13T18:05:34.089Z,56.30
2023-01-13T18:08:01.407Z,55.55
2023-01-13T18:10:29.020Z,55.30
2023-01-13T18:12:56.397Z,54.39
2023-01-13T18:15:23.617Z,55.96
2023-01-13T18:17:51.078Z,60.60
2023-01-13T18:20:37.451Z,59.21
2023-01-13T18:23:23.761Z,61.46
2023-01-13T18:26:09.979Z,60.77
2023-01-13T18:28:37.589Z,61.06
2023-01-13T18:31:05.047Z,57.78
2023-01-13T18:33:32.443Z,56.15
2023-01-13T18:35:59.950Z,55.91
2023-01-13T18:38:27.272Z,55.31
2023-01-13T18:40:54.656Z,55.94
2023-01-13T18:43:22.120Z,55.24
2023-01-13T18:45:49.976Z,55.75
2023-01-13T18:48:17.424Z,55.23
2023-01-13T18:50:45.042Z,55.17
2023-01-13T18:53:12.447Z,56.44
2023-01-13T18:55:39.640Z,56.96
2023-01-13T18:58:07.521Z,54.84
2023-01-13T19:00:37.459Z,55.93
2023-01-13T19:05:34.389Z,54.54
2023-01-13T19:08:01.802Z,56.12
2023-01-13T19:10:32.146Z,55.14
2023-01-13T19:13:01.210Z,55.52
2023-01-13T19:15:28.666Z,54.58
2023-01-13T19:17:56.156Z,56.13
2023-01-13T19:20:23.591Z,57.42
2023-01-13T19:22:54.248Z,55.06
2023-01-13T19:25:21.699Z,54.99
2023-01-13T19:27:49.206Z,54.17
2023-01-13T19:30:17.397Z,54.77
2023-01-13T19:32:45.954Z,54.30
2023-01-13T19:35:17.447Z,54.67
2023-01-13T19:37:45.456Z,53.83
2023-01-13T19:40:15.760Z,53.78
2023-01-13T19:43:02.384Z,53.87
2023-01-13T19:45:33.718Z,53.93
2023-01-13T19:48:02.342Z,52.85
2023-01-13T19:50:29.765Z,53.23
2023-01-13T19:52:57.369Z,52.69
2023-01-13T19:55:25.015Z,53.16
2023-01-13T19:57:52.242Z,53.70
2023-01-13T20:00:21.109Z,53.48
2023-01-13T20:02:49.601Z,53.14
2023-01-13T20:05:25.968Z,53.16
2023-01-13T20:07:53.925Z,53.01
2023-01-13T20:10:21.859Z,52.49
2023-01-13T20:12:49.036Z,53.15
2023-01-13T20:15:16.558Z,53.21
2023-01-13T20:17:43.778Z,53.02
2023-01-13T20:20:12.101Z,53.31
2023-01-13T20:22:39.774Z,53.81
2023-01-13T20:25:07.930Z,53.31
2023-01-13T20:27:35.365Z,54.23
2023-01-13T20:30:02.985Z,53.79
2023-01-13T20:32:30.356Z,54.80
2023-01-13T20:34:57.928Z,56.80
2023-01-13T20:37:25.608Z,55.72
2023-01-13T20:39:53.013Z,55.45
2023-01-13T20:42:29.304Z,55.62
2023-01-13T20:44:57.058Z,55.31
2023-01-13T20:47:24.627Z,54.95
2023-01-13T20:49:52.105Z,54.71
2023-01-13T20:52:20.013Z,54.88
2023-01-13T20:54:47.266Z,55.05
2023-01-13T20:57:14.631Z,55.24
2023-01-13T20:59:42.092Z,54.78
2023-01-13T21:02:13.315Z,54.97
2023-01-13T21:04:42.002Z,54.82
2023-01-13T21:07:09.681Z,54.48
2023-01-13T21:09:37.015Z,54.79
2023-01-13T21:12:22.718Z,54.57
2023-01-13T21:15:09.170Z,54.80
2023-01-13T21:17:55.226Z,54.82
2023-01-13T21:20:22.680Z,55.56
2023-01-13T21:22:50.167Z,57.87
2023-01-13T21:25:17.671Z,56.45
2023-01-13T21:27:45.172Z,57.72
2023-01-13T21:30:15.565Z,57.28
2023-01-13T21:32:44.097Z,57.88
2023-01-13T21:35:11.906Z,59.11
2023-01-13T21:37:39.695Z,59.85
2023-01-13T21:40:07.897Z,59.13
2023-01-13T21:42:53.959Z,58.46
2023-01-13T21:45:39.934Z,60.54
2023-01-13T21:48:07.450Z,61.88
2023-01-13T21:50:34.697Z,61.13
2023-01-13T21:53:01.898Z,60.87
2023-01-13T21:55:29.723Z,60.06
2023-01-13T21:57:57.726Z,60.56
2023-01-13T22:00:26.309Z,60.87
2023-01-13T22:02:53.932Z,59.13
2023-01-13T22:05:22.066Z,58.42
2023-01-13T22:07:49.502Z,58.33
2023-01-13T22:10:18.286Z,57.26
2023-01-13T22:12:45.662Z,57.02
2023-01-13T22:15:14.743Z,56.88
2023-01-13T22:17:42.762Z,56.83
2023-01-13T22:20:10.816Z,57.03
2023-01-13T22:22:38.221Z,56.76
2023-01-13T22:25:07.109Z,55.86
2023-01-13T22:27:40.528Z,55.29
2023-01-13T22:30:09.212Z,55.25
2023-01-13T22:32:37.778Z,55.63
2023-01-13T22:35:06.126Z,55.77
2023-01-13T22:37:33.583Z,55.65
2023-01-13T22:40:00.828Z,55.70
2023-01-13T22:42:28.172Z,55.54
2023-01-13T22:44:55.624Z,55.07
2023-01-13T22:47:22.918Z,55.43
2023-01-13T22:49:50.142Z,54.97
2023-01-13T22:52:17.811Z,54.75
2023-01-13T22:54:45.007Z,55.23
2023-01-13T22:57:12.652Z,55.34
2023-01-13T22:59:40.159Z,56.53
2023-01-13T23:02:07.702Z,56.44
2023-01-13T23:04:35.157Z,55.47
2023-01-13T23:07:02.625Z,54.91
2023-01-13T23:09:30.016Z,55.26
2023-01-13T23:11:58.167Z,56.08
2023-01-13T23:14:25.815Z,58.02
2023-01-13T23:16:53.705Z,60.45
2023-01-13T23:19:21.553Z,58.31
2023-01-13T23:21:49.165Z,58.34
2023-01-13T23:24:16.326Z,56.86
2023-01-13T23:26:43.497Z,58.42
2023-01-13T23:29:11.463Z,57.44
2023-01-13T23:31:38.708Z,57.24
2023-01-13T23:34:05.950Z,59.12
2023-01-13T23:36:33.665Z,61.90
2023-01-13T23:39:00.873Z,57.80
2023-01-13T23:41:28.091Z,58.12
2023-01-13T23:43:56.695Z,57.77
2023-01-13T23:46:24.151Z,57.32
2023-01-13T23:48:51.661Z,57.79
2023-01-13T23:51:20.973Z,56.76
2023-01-13T23:53:48.777Z,55.95
2023-01-13T23:56:17.476Z,55.83
2023-01-13T23:58:45.252Z,55.98
